Yuma, Tennessee
Current Conditions -  °F | °C
As of 12:15 PM on Sunday 25 Jan 2015 (Local Time) from KPVE Reporting Station
Broken Clouds Broken Clouds  
Wind Chill: 45°   Ceiling: 5500
Heat Index: 48°   Visibility: 10mi
Dew Point: 37°   Wind: 8mph
Humidity: 66%   Direction: 210°SSW
Pressure: 29.66"   Gusts: NA
Location:  35.85°N, 88.34°W
Report Text: KPVE 251815Z AUTO 21007KT 10SM SCT044 BKN055 09/03 A2966 RMK
Loading
Personal Weather Stations






























Interactive Weather Map New forecast layout! Learn more

10-Day Weather Forecast

Advertisements
Track Severe Weather on mobile